createdAt,value
2019-05-14T00:02:21.340Z,93.40
2019-05-14T00:06:24.491Z,93.20
2019-05-14T00:10:28.173Z,93.40
2019-05-14T00:14:39.682Z,93.40
2019-05-14T00:18:37.026Z,93.30
2019-05-14T00:22:41.670Z,93.50
2019-05-14T00:26:45.467Z,93.50
2019-05-14T00:30:48.915Z,93.60
2019-05-14T00:34:52.595Z,93.70
2019-05-14T00:38:56.026Z,93.90
2019-05-14T00:43:02.400Z,93.70
2019-05-14T00:47:04.734Z,93.70
2019-05-14T00:51:08.167Z,93.90
2019-05-14T00:55:11.931Z,94.00
2019-05-14T00:59:15.681Z,94.00
2019-05-14T01:03:19.121Z,93.90
2019-05-14T01:07:22.562Z,93.90
2019-05-14T01:11:26.066Z,94.00
2019-05-14T01:15:32.036Z,94.20
2019-05-14T01:19:35.175Z,94.40
2019-05-14T01:23:38.878Z,94.40
2019-05-14T01:27:42.397Z,94.00
2019-05-14T01:31:45.906Z,94.40
2019-05-14T01:35:51.505Z,94.60
2019-05-14T01:39:54.778Z,94.80
2019-05-14T01:43:58.214Z,94.70
2019-05-14T01:48:01.913Z,94.90
2019-05-14T01:52:05.349Z,95.10
2019-05-14T01:56:08.790Z,95.30
2019-05-14T02:00:13.262Z,95.50
2019-05-14T02:04:16.700Z,95.90
2019-05-14T02:08:21.406Z,95.80
2019-05-14T02:12:25.069Z,95.80
2019-05-14T02:16:30.900Z,95.40
2019-05-14T02:20:34.208Z,95.50
2019-05-14T02:24:37.918Z,95.60
2019-05-14T02:28:42.181Z,95.60
2019-05-14T02:32:45.716Z,95.50
2019-05-14T02:36:49.786Z,95.50
2019-05-14T02:40:53.793Z,95.60
2019-05-14T02:44:59.270Z,95.60
2019-05-14T02:49:01.611Z,95.60
2019-05-14T02:53:05.309Z,95.70
2019-05-14T02:57:10.466Z,95.80
2019-05-14T03:01:14.282Z,95.90
2019-05-14T03:05:19.269Z,96.00
2019-05-14T03:09:23.014Z,95.90
2019-05-14T03:13:29.318Z,95.90
2019-05-14T03:17:30.901Z,95.80
2019-05-14T03:21:34.617Z,95.80
2019-05-14T03:25:39.946Z,95.80
2019-05-14T03:29:43.474Z,96.00
2019-05-14T03:33:52.063Z,96.00
2019-05-14T03:37:51.365Z,96.00
2019-05-14T03:41:54.797Z,96.00
2019-05-14T03:45:59.284Z,96.20
2019-05-14T03:50:03.271Z,96.20
2019-05-14T03:54:11.320Z,96.20
2019-05-14T03:58:11.884Z,96.00
2019-05-14T04:02:19.579Z,95.90
2019-05-14T04:06:20.967Z,95.00
2019-05-14T04:10:24.563Z,95.10
2019-05-14T04:14:31.422Z,95.60
2019-05-14T04:18:39.782Z,96.20
2019-05-14T04:22:41.533Z,96.70
2019-05-14T04:26:58.259Z,98.30
2019-05-14T04:30:55.704Z,97.80
2019-05-14T04:35:00.483Z,97.30
2019-05-14T04:39:09.050Z,97.10
2019-05-14T04:43:10.727Z,97.00
2019-05-14T04:47:27.753Z,96.60
2019-05-14T04:51:20.217Z,96.30
2019-05-14T04:55:23.798Z,96.20
2019-05-14T04:59:29.947Z,95.90
2019-05-14T05:03:32.419Z,95.90
2019-05-14T05:07:36.100Z,95.40
2019-05-14T05:11:39.885Z,95.40
2019-05-14T05:15:43.353Z,95.20
2019-05-14T05:19:51.377Z,94.90
2019-05-14T05:23:51.939Z,94.30
2019-05-14T05:27:56.559Z,94.00
2019-05-14T05:32:00.933Z,93.60
2019-05-14T05:36:04.767Z,93.20
2019-05-14T05:40:09.252Z,92.40
2019-05-14T05:44:12.875Z,92.20
2019-05-14T05:48:18.789Z,92.50
2019-05-14T05:52:22.020Z,92.60
2019-05-14T05:56:25.511Z,92.80
2019-05-14T06:00:40.064Z,92.50
2019-05-14T06:04:42.710Z,92.90
2019-05-14T06:08:46.141Z,92.10
2019-05-14T06:12:49.592Z,90.90
2019-05-14T06:16:53.102Z,91.10
2019-05-14T06:20:58.632Z,90.70
2019-05-14T06:25:02.171Z,88.80
2019-05-14T06:29:08.196Z,88.70
2019-05-14T06:33:10.902Z,87.50
2019-05-14T06:37:14.349Z,86.70
2019-05-14T06:41:19.050Z,86.50
2019-05-14T06:45:22.862Z,85.70
2019-05-14T06:49:28.775Z,85.20
2019-05-14T06:53:31.737Z,85.20
2019-05-14T06:57:35.223Z,84.10
2019-05-14T07:01:38.677Z,83.40
2019-05-14T07:05:42.115Z,80.50
2019-05-14T07:09:45.561Z,79.70
2019-05-14T07:13:49.455Z,78.00
2019-05-14T07:17:52.997Z,78.10
2019-05-14T07:21:58.280Z,77.00
2019-05-14T07:26:01.923Z,77.50
2019-05-14T07:30:08.994Z,72.60
2019-05-14T07:34:12.315Z,72.20
2019-05-14T07:38:15.767Z,71.00
2019-05-14T07:42:19.222Z,69.90
2019-05-14T07:46:22.918Z,65.10
2019-05-14T07:50:28.816Z,63.10
2019-05-14T07:54:31.520Z,63.10
2019-05-14T07:58:34.971Z,62.80
2019-05-14T08:02:38.493Z,62.10
2019-05-14T08:06:41.931Z,60.20
2019-05-14T08:10:45.642Z,58.10
2019-05-14T08:15:09.531Z,60.10
2019-05-14T08:18:54.018Z,56.60
2019-05-14T08:22:58.212Z,56.70
2019-05-14T08:27:01.791Z,58.50
2019-05-14T08:31:05.224Z,58.40
2019-05-14T08:35:09.670Z,57.00
2019-05-14T08:39:13.182Z,54.90
2019-05-14T08:43:18.487Z,51.40
2019-05-14T08:47:21.863Z,54.20
2019-05-14T08:51:25.640Z,52.90
2019-05-14T08:55:29.709Z,51.90
2019-05-14T08:59:33.226Z,52.50
2019-05-14T09:03:39.356Z,50.90
2019-05-14T09:07:41.929Z,50.20
2019-05-14T09:11:46.624Z,49.40
2019-05-14T09:15:50.791Z,46.50
2019-05-14T09:20:02.249Z,48.80
2019-05-14T09:23:59.922Z,50.40
2019-05-14T09:28:03.376Z,48.60
2019-05-14T09:32:09.330Z,44.00
2019-05-14T09:36:19.614Z,43.50
2019-05-14T09:40:19.542Z,45.30
2019-05-14T09:44:22.557Z,45.60
2019-05-14T09:48:28.182Z,43.50
2019-05-14T09:52:31.451Z,47.60
2019-05-14T09:56:34.890Z,45.60
2019-05-14T10:00:38.995Z,44.80
2019-05-14T10:04:42.722Z,48.00
2019-05-14T10:08:48.411Z,48.70
2019-05-14T10:12:56.327Z,43.70
2019-05-14T10:16:58.270Z,47.50
2019-05-14T10:21:01.885Z,44.60
2019-05-14T10:25:05.674Z,45.30
2019-05-14T10:29:09.210Z,45.60
2019-05-14T10:33:14.998Z,46.10
2019-05-14T10:37:19.134Z,43.10
2019-05-14T10:41:22.830Z,39.10
2019-05-14T10:45:28.764Z,40.10
2019-05-14T10:49:33.692Z,41.80
2019-05-14T10:53:37.246Z,43.40
2019-05-14T10:57:40.675Z,41.40
2019-05-14T11:01:44.369Z,47.30
2019-05-14T11:05:48.258Z,41.00
2019-05-14T11:09:51.785Z,44.90
2019-05-14T11:13:55.535Z,39.10
2019-05-14T11:17:59.236Z,38.80
2019-05-14T11:22:02.763Z,40.30
2019-05-14T11:26:09.024Z,45.90
2019-05-14T11:30:13.392Z,37.20
2019-05-14T11:34:19.323Z,39.70
2019-05-14T11:38:29.816Z,40.40
2019-05-14T11:42:31.196Z,43.90
2019-05-14T11:46:43.660Z,42.00
2019-05-14T11:50:37.241Z,41.50
2019-05-14T11:54:41.228Z,40.40
2019-05-14T11:58:44.787Z,39.90
2019-05-14T12:02:48.298Z,43.10
2019-05-14T12:06:52.004Z,37.30
2019-05-14T12:10:55.783Z,42.20
2019-05-14T12:14:59.466Z,41.90
2019-05-14T12:19:02.906Z,37.20
2019-05-14T12:23:08.932Z,39.60
2019-05-14T12:27:11.791Z,44.20
2019-05-14T12:31:15.251Z,49.80
2019-05-14T12:35:19.687Z,40.90
2019-05-14T12:39:23.497Z,41.00
2019-05-14T12:43:28.329Z,42.40
2019-05-14T12:47:32.073Z,41.00
2019-05-14T12:51:39.335Z,41.80
2019-05-14T12:55:41.017Z,42.30
2019-05-14T12:59:44.454Z,42.20
2019-05-14T13:03:48.493Z,40.60
2019-05-14T13:07:52.021Z,41.30
2019-05-14T13:11:55.483Z,38.80
2019-05-14T13:15:58.947Z,42.50
2019-05-14T13:20:02.549Z,43.30
2019-05-14T13:24:08.764Z,43.40
2019-05-14T13:28:11.308Z,41.80
2019-05-14T13:32:15.031Z,42.80
2019-05-14T13:36:20.474Z,41.50
2019-05-14T13:40:23.639Z,42.00
2019-05-14T13:44:29.170Z,44.70
2019-05-14T13:48:32.583Z,41.40
2019-05-14T13:52:38.953Z,40.60
2019-05-14T13:56:41.526Z,41.90
2019-05-14T14:00:44.976Z,39.90
2019-05-14T14:04:48.420Z,40.10
2019-05-14T14:08:51.863Z,40.70
2019-05-14T14:12:55.567Z,40.50
2019-05-14T14:16:59.014Z,40.90
2019-05-14T14:21:02.466Z,42.10
2019-05-14T14:25:08.896Z,42.50
2019-05-14T14:29:12.271Z,40.40
2019-05-14T14:33:18.325Z,42.60
2019-05-14T14:37:21.461Z,45.50
2019-05-14T14:41:25.189Z,40.50
2019-05-14T14:45:29.269Z,40.50
2019-05-14T14:49:33.466Z,43.50
2019-05-14T14:53:51.446Z,42.90
2019-05-14T14:57:45.551Z,45.20
2019-05-14T15:01:50.167Z,45.00
2019-05-14T15:05:52.771Z,45.40
2019-05-14T15:09:59.421Z,46.00
2019-05-14T15:14:01.644Z,42.00
2019-05-14T15:18:05.100Z,47.80
2019-05-14T15:22:08.851Z,41.80
2019-05-14T15:26:12.561Z,44.00
2019-05-14T15:30:16.282Z,45.80
2019-05-14T15:34:19.738Z,46.00
2019-05-14T15:38:23.643Z,45.90
2019-05-14T15:42:28.350Z,46.70
2019-05-14T15:46:41.359Z,47.50
2019-05-14T15:50:40.739Z,45.10
2019-05-14T15:54:47.405Z,42.70
2019-05-14T15:58:49.470Z,41.80
2019-05-14T16:02:52.914Z,42.50
2019-05-14T16:06:58.637Z,41.60
2019-05-14T16:11:05.381Z,40.80
2019-05-14T16:15:09.157Z,45.20
2019-05-14T16:19:12.724Z,42.30
2019-05-14T16:23:18.623Z,42.50
2019-05-14T16:27:21.333Z,43.40
2019-05-14T16:31:24.806Z,43.60
2019-05-14T16:35:28.642Z,42.50
2019-05-14T16:39:39.183Z,42.00
2019-05-14T16:43:40.036Z,43.00
2019-05-14T16:47:42.630Z,42.60
2019-05-14T16:51:46.085Z,43.20
2019-05-14T16:55:49.547Z,44.00
2019-05-14T16:59:53.311Z,45.20
2019-05-14T17:03:59.422Z,45.20
2019-05-14T17:08:02.530Z,45.80
2019-05-14T17:12:08.336Z,45.20
2019-05-14T17:16:11.599Z,44.20
2019-05-14T17:20:15.192Z,43.70
2019-05-14T17:24:20.078Z,44.90
2019-05-14T17:28:23.678Z,44.10
2019-05-14T17:32:30.107Z,43.90
2019-05-14T17:36:32.327Z,45.00
2019-05-14T17:40:35.795Z,45.80
2019-05-14T17:44:39.282Z,45.90
2019-05-14T17:48:42.983Z,46.00
2019-05-14T17:52:55.389Z,45.90
2019-05-14T17:56:51.993Z,48.60
2019-05-14T18:00:58.016Z,46.30
2019-05-14T18:05:00.690Z,45.90
2019-05-14T18:09:05.382Z,45.70
2019-05-14T18:13:09.601Z,46.50
2019-05-14T18:17:14.793Z,47.10
2019-05-14T18:21:18.557Z,48.00
2019-05-14T18:25:22.041Z,51.50
2019-05-14T18:29:25.763Z,50.10
2019-05-14T18:33:31.163Z,52.40
2019-05-14T18:37:34.416Z,54.50
2019-05-14T18:41:38.940Z,51.80
2019-05-14T18:45:42.678Z,50.80
2019-05-14T18:49:48.184Z,50.80
2019-05-14T18:53:51.504Z,51.20
2019-05-14T18:57:55.028Z,51.10
2019-05-14T19:01:59.475Z,51.20
2019-05-14T19:06:03.192Z,51.90
2019-05-14T19:10:09.124Z,52.00
2019-05-14T19:14:12.204Z,53.20
2019-05-14T19:18:15.730Z,52.70
2019-05-14T19:22:19.241Z,53.10
2019-05-14T19:26:33.417Z,53.00
2019-05-14T19:30:28.612Z,53.40
2019-05-14T19:34:32.536Z,54.40
2019-05-14T19:38:35.981Z,56.10
2019-05-14T19:42:39.904Z,63.10
2019-05-14T19:46:43.383Z,68.40
2019-05-14T19:50:48.861Z,70.70
2019-05-14T19:54:51.990Z,71.30
2019-05-14T19:58:55.751Z,74.40
2019-05-14T20:02:59.206Z,78.70
2019-05-14T20:07:02.985Z,81.60
2019-05-14T20:11:06.742Z,83.50
2019-05-14T20:15:10.319Z,84.30
2019-05-14T20:19:14.973Z,83.60
2019-05-14T20:23:18.641Z,83.70
2019-05-14T20:27:22.433Z,83.10
2019-05-14T20:31:26.126Z,82.40
2019-05-14T20:35:34.497Z,80.40
2019-05-14T20:39:35.031Z,78.40
2019-05-14T20:43:38.698Z,78.90
2019-05-14T20:47:42.290Z,80.00
2019-05-14T20:51:45.730Z,82.70
2019-05-14T20:55:49.181Z,84.20
2019-05-14T20:59:52.907Z,84.90
2019-05-14T21:03:56.403Z,85.10
2019-05-14T21:07:59.895Z,84.70
2019-05-14T21:12:03.327Z,86.30
2019-05-14T21:16:08.362Z,87.10
2019-05-14T21:20:13.715Z,88.10
2019-05-14T21:24:18.146Z,89.00
2019-05-14T21:28:22.326Z,88.70
2019-05-14T21:32:28.265Z,89.50
2019-05-14T21:36:30.926Z,90.60
2019-05-14T21:40:34.374Z,90.40
2019-05-14T21:44:39.181Z,90.80
2019-05-14T21:48:42.815Z,91.10
2019-05-14T21:52:46.515Z,92.30
2019-05-14T21:56:50.212Z,92.30
2019-05-14T22:00:54.425Z,92.50
2019-05-14T22:05:01.240Z,92.70
2019-05-14T22:09:03.622Z,92.70
2019-05-14T22:13:07.066Z,92.90
2019-05-14T22:17:10.514Z,92.90
2019-05-14T22:21:13.967Z,93.00
2019-05-14T22:25:19.021Z,93.20
2019-05-14T22:29:22.869Z,93.20
2019-05-14T22:33:28.322Z,93.10
2019-05-14T22:37:31.475Z,93.10
2019-05-14T22:41:34.917Z,93.50
2019-05-14T22:45:38.357Z,93.40
2019-05-14T22:49:41.830Z,93.30
2019-05-14T22:53:45.283Z,93.70
2019-05-14T22:57:48.969Z,93.50
2019-05-14T23:01:52.671Z,93.40
2019-05-14T23:05:58.092Z,93.30
2019-05-14T23:10:01.323Z,93.60
2019-05-14T23:14:05.101Z,94.00
2019-05-14T23:18:08.746Z,94.10
2019-05-14T23:22:12.550Z,94.30
2019-05-14T23:26:16.270Z,94.20
2019-05-14T23:30:22.794Z,94.40
2019-05-14T23:34:28.364Z,94.40
2019-05-14T23:38:31.822Z,94.50
2019-05-14T23:42:35.523Z,94.00
2019-05-14T23:46:38.975Z,94.00
2019-05-14T23:50:42.533Z,94.20
2019-05-14T23:54:48.093Z,94.30
2019-05-14T23:58:55.683Z,94.60
